sensor_id;sensor_type;location;lat;lon;timestamp;P1;durP1;ratioP1;P2;durP2;ratioP2
5333;SDS011;2689;50.954;7.116;2022-11-15T00:02:22;8.57;;;6.80;;
5333;SDS011;2689;50.954;7.116;2022-11-15T00:04:49;10.20;;;6.33;;
5333;SDS011;2689;50.954;7.116;2022-11-15T00:07:15;7.87;;;6.30;;
5333;SDS011;2689;50.954;7.116;2022-11-15T00:09:42;9.03;;;6.20;;
5333;SDS011;2689;50.954;7.116;2022-11-15T00:12:10;10.90;;;6.63;;
5333;SDS011;2689;50.954;7.116;2022-11-15T00:14:37;7.90;;;6.07;;
5333;SDS011;2689;50.954;7.116;2022-11-15T00:17:04;7.20;;;6.30;;
5333;SDS011;2689;50.954;7.116;2022-11-15T00:19:31;8.33;;;6.33;;
5333;SDS011;2689;50.954;7.116;2022-11-15T00:21:58;7.13;;;6.13;;
5333;SDS011;2689;50.954;7.116;2022-11-15T00:24:25;7.57;;;5.93;;
5333;SDS011;2689;50.954;7.116;2022-11-15T00:26:51;9.10;;;6.00;;
5333;SDS011;2689;50.954;7.116;2022-11-15T00:29:20;11.93;;;6.50;;
5333;SDS011;2689;50.954;7.116;2022-11-15T00:31:46;9.00;;;6.80;;
5333;SDS011;2689;50.954;7.116;2022-11-15T00:34:13;13.40;;;6.67;;
5333;SDS011;2689;50.954;7.116;2022-11-15T00:36:40;9.63;;;6.73;;
5333;SDS011;2689;50.954;7.116;2022-11-15T00:39:07;10.50;;;6.57;;
5333;SDS011;2689;50.954;7.116;2022-11-15T00:41:34;9.43;;;6.77;;
5333;SDS011;2689;50.954;7.116;2022-11-15T00:44:00;9.10;;;6.53;;
5333;SDS011;2689;50.954;7.116;2022-11-15T00:46:28;7.83;;;6.03;;
5333;SDS011;2689;50.954;7.116;2022-11-15T00:48:55;8.03;;;6.03;;
5333;SDS011;2689;50.954;7.116;2022-11-15T00:51:22;6.77;;;5.80;;
5333;SDS011;2689;50.954;7.116;2022-11-15T00:53:49;10.43;;;6.50;;
5333;SDS011;2689;50.954;7.116;2022-11-15T00:56:16;9.60;;;7.70;;
5333;SDS011;2689;50.954;7.116;2022-11-15T00:58:42;12.23;;;6.60;;
5333;SDS011;2689;50.954;7.116;2022-11-15T01:01:10;9.80;;;6.30;;
5333;SDS011;2689;50.954;7.116;2022-11-15T01:03:40;10.20;;;6.30;;
5333;SDS011;2689;50.954;7.116;2022-11-15T01:06:07;8.90;;;6.07;;
5333;SDS011;2689;50.954;7.116;2022-11-15T01:08:35;8.80;;;7.03;;
5333;SDS011;2689;50.954;7.116;2022-11-15T01:11:02;8.17;;;6.07;;
5333;SDS011;2689;50.954;7.116;2022-11-15T01:13:31;10.50;;;6.60;;
5333;SDS011;2689;50.954;7.116;2022-11-15T01:15:58;9.10;;;6.50;;
5333;SDS011;2689;50.954;7.116;2022-11-15T01:18:26;9.33;;;6.00;;
5333;SDS011;2689;50.954;7.116;2022-11-15T01:20:55;9.50;;;6.40;;
5333;SDS011;2689;50.954;7.116;2022-11-15T01:23:22;9.33;;;5.97;;
5333;SDS011;2689;50.954;7.116;2022-11-15T01:25:48;10.57;;;6.17;;
5333;SDS011;2689;50.954;7.116;2022-11-15T01:28:15;13.90;;;7.00;;
5333;SDS011;2689;50.954;7.116;2022-11-15T01:30:42;7.27;;;6.40;;
5333;SDS011;2689;50.954;7.116;2022-11-15T01:33:09;9.93;;;6.90;;
5333;SDS011;2689;50.954;7.116;2022-11-15T01:35:38;10.60;;;6.50;;
5333;SDS011;2689;50.954;7.116;2022-11-15T01:38:07;8.43;;;5.90;;
5333;SDS011;2689;50.954;7.116;2022-11-15T01:40:34;10.83;;;6.17;;
5333;SDS011;2689;50.954;7.116;2022-11-15T01:45:47;6.87;;;6.07;;
5333;SDS011;2689;50.954;7.116;2022-11-15T01:48:18;8.40;;;5.70;;
5333;SDS011;2689;50.954;7.116;2022-11-15T01:50:46;8.63;;;6.60;;
5333;SDS011;2689;50.954;7.116;2022-11-15T01:53:14;6.40;;;5.70;;
5333;SDS011;2689;50.954;7.116;2022-11-15T01:55:41;8.73;;;6.57;;
5333;SDS011;2689;50.954;7.116;2022-11-15T01:58:08;7.20;;;5.97;;
5333;SDS011;2689;50.954;7.116;2022-11-15T02:00:35;7.10;;;6.30;;
5333;SDS011;2689;50.954;7.116;2022-11-15T02:03:02;8.77;;;5.60;;
5333;SDS011;2689;50.954;7.116;2022-11-15T02:07:56;8.90;;;6.60;;
5333;SDS011;2689;50.954;7.116;2022-11-15T02:10:25;9.67;;;5.97;;
5333;SDS011;2689;50.954;7.116;2022-11-15T02:12:51;10.87;;;6.30;;
5333;SDS011;2689;50.954;7.116;2022-11-15T02:15:19;10.10;;;6.73;;
5333;SDS011;2689;50.954;7.116;2022-11-15T02:17:58;8.00;;;6.13;;
5333;SDS011;2689;50.954;7.116;2022-11-15T02:20:36;9.67;;;6.40;;
5333;SDS011;2689;50.954;7.116;2022-11-15T02:29:37;8.60;;;6.20;;
5333;SDS011;2689;50.954;7.116;2022-11-15T02:32:28;8.90;;;6.30;;
5333;SDS011;2689;50.954;7.116;2022-11-15T02:35:02;8.80;;;6.50;;
5333;SDS011;2689;50.954;7.116;2022-11-15T02:37:37;8.20;;;5.13;;
5333;SDS011;2689;50.954;7.116;2022-11-15T02:40:10;6.30;;;5.00;;
5333;SDS011;2689;50.954;7.116;2022-11-15T02:42:45;12.93;;;5.97;;
5333;SDS011;2689;50.954;7.116;2022-11-15T02:45:37;6.40;;;5.33;;
5333;SDS011;2689;50.954;7.116;2022-11-15T02:48:11;12.67;;;5.97;;
5333;SDS011;2689;50.954;7.116;2022-11-15T02:50:39;6.20;;;5.03;;
5333;SDS011;2689;50.954;7.116;2022-11-15T02:53:07;8.57;;;5.67;;
5333;SDS011;2689;50.954;7.116;2022-11-15T02:55:36;6.37;;;5.00;;
5333;SDS011;2689;50.954;7.116;2022-11-15T02:58:07;5.13;;;4.40;;
5333;SDS011;2689;50.954;7.116;2022-11-15T03:00:50;7.53;;;5.60;;
5333;SDS011;2689;50.954;7.116;2022-11-15T03:03:36;6.50;;;4.90;;
5333;SDS011;2689;50.954;7.116;2022-11-15T03:06:16;8.00;;;5.77;;
5333;SDS011;2689;50.954;7.116;2022-11-15T03:08:51;8.73;;;5.20;;
5333;SDS011;2689;50.954;7.116;2022-11-15T03:11:25;7.10;;;5.07;;
5333;SDS011;2689;50.954;7.116;2022-11-15T03:13:54;5.33;;;4.80;;
5333;SDS011;2689;50.954;7.116;2022-11-15T03:16:26;8.37;;;4.83;;
5333;SDS011;2689;50.954;7.116;2022-11-15T03:19:00;5.60;;;4.80;;
5333;SDS011;2689;50.954;7.116;2022-11-15T03:21:33;6.17;;;5.37;;
5333;SDS011;2689;50.954;7.116;2022-11-15T03:24:03;7.00;;;5.20;;
5333;SDS011;2689;50.954;7.116;2022-11-15T03:26:33;6.30;;;5.30;;
5333;SDS011;2689;50.954;7.116;2022-11-15T03:29:03;8.47;;;5.70;;
5333;SDS011;2689;50.954;7.116;2022-11-15T03:31:33;8.13;;;5.23;;
5333;SDS011;2689;50.954;7.116;2022-11-15T03:34:17;8.80;;;5.63;;
5333;SDS011;2689;50.954;7.116;2022-11-15T03:36:49;6.47;;;5.10;;
5333;SDS011;2689;50.954;7.116;2022-11-15T03:39:17;5.80;;;4.53;;
5333;SDS011;2689;50.954;7.116;2022-11-15T03:41:46;7.20;;;6.00;;
5333;SDS011;2689;50.954;7.116;2022-11-15T03:44:19;6.50;;;5.13;;
5333;SDS011;2689;50.954;7.116;2022-11-15T03:46:53;5.70;;;4.90;;
5333;SDS011;2689;50.954;7.116;2022-11-15T03:49:27;6.50;;;5.20;;
5333;SDS011;2689;50.954;7.116;2022-11-15T03:51:59;6.40;;;4.93;;
5333;SDS011;2689;50.954;7.116;2022-11-15T03:54:26;6.57;;;5.50;;
5333;SDS011;2689;50.954;7.116;2022-11-15T03:56:53;7.60;;;6.10;;
5333;SDS011;2689;50.954;7.116;2022-11-15T03:59:20;6.03;;;5.47;;
5333;SDS011;2689;50.954;7.116;2022-11-15T04:01:47;6.10;;;5.50;;
5333;SDS011;2689;50.954;7.116;2022-11-15T04:04:13;6.80;;;5.30;;
5333;SDS011;2689;50.954;7.116;2022-11-15T04:06:42;9.13;;;5.57;;
5333;SDS011;2689;50.954;7.116;2022-11-15T04:09:08;7.97;;;5.50;;
5333;SDS011;2689;50.954;7.116;2022-11-15T04:11:35;6.70;;;5.70;;
5333;SDS011;2689;50.954;7.116;2022-11-15T04:14:02;5.90;;;5.30;;
5333;SDS011;2689;50.954;7.116;2022-11-15T04:16:29;6.33;;;5.73;;
5333;SDS011;2689;50.954;7.116;2022-11-15T04:18:55;6.90;;;5.67;;
5333;SDS011;2689;50.954;7.116;2022-11-15T04:21:36;9.57;;;5.73;;
5333;SDS011;2689;50.954;7.116;2022-11-15T04:24:22;8.07;;;5.47;;
5333;SDS011;2689;50.954;7.116;2022-11-15T04:26:48;5.60;;;5.10;;
5333;SDS011;2689;50.954;7.116;2022-11-15T04:29:15;5.73;;;5.13;;
5333;SDS011;2689;50.954;7.116;2022-11-15T04:32:00;5.60;;;5.03;;
5333;SDS011;2689;50.954;7.116;2022-11-15T04:34:27;7.13;;;5.63;;
5333;SDS011;2689;50.954;7.116;2022-11-15T04:36:54;6.60;;;4.80;;
5333;SDS011;2689;50.954;7.116;2022-11-15T04:39:41;6.50;;;5.03;;
5333;SDS011;2689;50.954;7.116;2022-11-15T04:42:09;6.83;;;5.60;;
5333;SDS011;2689;50.954;7.116;2022-11-15T04:44:37;5.90;;;5.30;;
5333;SDS011;2689;50.954;7.116;2022-11-15T04:47:04;6.20;;;5.10;;
5333;SDS011;2689;50.954;7.116;2022-11-15T04:49:30;6.53;;;5.30;;
5333;SDS011;2689;50.954;7.116;2022-11-15T04:51:57;5.77;;;5.17;;
5333;SDS011;2689;50.954;7.116;2022-11-15T04:54:24;7.93;;;6.20;;
5333;SDS011;2689;50.954;7.116;2022-11-15T04:56:52;6.10;;;5.47;;
5333;SDS011;2689;50.954;7.116;2022-11-15T04:59:19;7.33;;;5.30;;
5333;SDS011;2689;50.954;7.116;2022-11-15T05:01:46;9.60;;;5.30;;
5333;SDS011;2689;50.954;7.116;2022-11-15T05:04:12;7.33;;;5.30;;
5333;SDS011;2689;50.954;7.116;2022-11-15T05:06:45;10.20;;;6.20;;
5333;SDS011;2689;50.954;7.116;2022-11-15T05:09:12;8.00;;;5.20;;
5333;SDS011;2689;50.954;7.116;2022-11-15T05:11:39;6.30;;;5.37;;
5333;SDS011;2689;50.954;7.116;2022-11-15T05:14:07;4.40;;;4.00;;
5333;SDS011;2689;50.954;7.116;2022-11-15T05:16:34;7.77;;;5.60;;
5333;SDS011;2689;50.954;7.116;2022-11-15T05:19:01;5.70;;;4.60;;
5333;SDS011;2689;50.954;7.116;2022-11-15T05:21:28;5.83;;;4.37;;
5333;SDS011;2689;50.954;7.116;2022-11-15T05:23:55;4.73;;;4.03;;
5333;SDS011;2689;50.954;7.116;2022-11-15T05:26:22;5.60;;;4.40;;
5333;SDS011;2689;50.954;7.116;2022-11-15T05:28:51;8.03;;;4.67;;
5333;SDS011;2689;50.954;7.116;2022-11-15T05:31:20;6.27;;;4.40;;
5333;SDS011;2689;50.954;7.116;2022-11-15T05:33:48;4.53;;;4.00;;
5333;SDS011;2689;50.954;7.116;2022-11-15T05:36:17;6.37;;;4.60;;
5333;SDS011;2689;50.954;7.116;2022-11-15T05:38:46;6.10;;;4.90;;
5333;SDS011;2689;50.954;7.116;2022-11-15T05:41:14;5.27;;;3.93;;
5333;SDS011;2689;50.954;7.116;2022-11-15T05:43:43;7.23;;;4.53;;
5333;SDS011;2689;50.954;7.116;2022-11-15T05:46:10;10.27;;;4.80;;
5333;SDS011;2689;50.954;7.116;2022-11-15T05:48:41;5.13;;;4.00;;
5333;SDS011;2689;50.954;7.116;2022-11-15T05:51:11;6.47;;;4.20;;
5333;SDS011;2689;50.954;7.116;2022-11-15T05:53:40;4.73;;;3.17;;
5333;SDS011;2689;50.954;7.116;2022-11-15T05:56:07;6.13;;;3.20;;
5333;SDS011;2689;50.954;7.116;2022-11-15T05:58:35;5.70;;;4.23;;
5333;SDS011;2689;50.954;7.116;2022-11-15T06:01:03;6.60;;;4.87;;
5333;SDS011;2689;50.954;7.116;2022-11-15T06:03:30;6.20;;;3.53;;
5333;SDS011;2689;50.954;7.116;2022-11-15T06:05:59;5.03;;;3.00;;
5333;SDS011;2689;50.954;7.116;2022-11-15T06:08:26;3.13;;;2.37;;
5333;SDS011;2689;50.954;7.116;2022-11-15T06:10:53;4.03;;;3.13;;
5333;SDS011;2689;50.954;7.116;2022-11-15T06:13:20;5.03;;;3.40;;
5333;SDS011;2689;50.954;7.116;2022-11-15T06:15:47;3.80;;;3.50;;
5333;SDS011;2689;50.954;7.116;2022-11-15T06:18:14;3.87;;;3.40;;
5333;SDS011;2689;50.954;7.116;2022-11-15T06:20:40;4.37;;;3.50;;
5333;SDS011;2689;50.954;7.116;2022-11-15T06:23:09;5.43;;;3.47;;
5333;SDS011;2689;50.954;7.116;2022-11-15T06:25:35;5.07;;;3.60;;
5333;SDS011;2689;50.954;7.116;2022-11-15T06:28:02;5.80;;;3.40;;
5333;SDS011;2689;50.954;7.116;2022-11-15T06:30:29;4.20;;;3.40;;
5333;SDS011;2689;50.954;7.116;2022-11-15T06:33:00;4.40;;;3.60;;
5333;SDS011;2689;50.954;7.116;2022-11-15T06:35:27;5.80;;;4.97;;
5333;SDS011;2689;50.954;7.116;2022-11-15T06:37:55;3.80;;;3.37;;
5333;SDS011;2689;50.954;7.116;2022-11-15T06:40:23;3.83;;;3.00;;
5333;SDS011;2689;50.954;7.116;2022-11-15T06:42:50;4.47;;;3.00;;
5333;SDS011;2689;50.954;7.116;2022-11-15T06:45:17;7.10;;;3.50;;
5333;SDS011;2689;50.954;7.116;2022-11-15T06:47:44;5.60;;;3.50;;
5333;SDS011;2689;50.954;7.116;2022-11-15T06:50:11;3.60;;;3.30;;
5333;SDS011;2689;50.954;7.116;2022-11-15T06:52:38;5.67;;;3.23;;
5333;SDS011;2689;50.954;7.116;2022-11-15T06:55:06;4.67;;;3.40;;
5333;SDS011;2689;50.954;7.116;2022-11-15T06:57:35;4.90;;;3.57;;
5333;SDS011;2689;50.954;7.116;2022-11-15T07:00:02;6.80;;;3.57;;
5333;SDS011;2689;50.954;7.116;2022-11-15T07:02:29;4.13;;;3.30;;
5333;SDS011;2689;50.954;7.116;2022-11-15T07:04:56;4.10;;;2.90;;
5333;SDS011;2689;50.954;7.116;2022-11-15T07:07:23;4.77;;;2.90;;
5333;SDS011;2689;50.954;7.116;2022-11-15T07:09:50;4.20;;;3.00;;
5333;SDS011;2689;50.954;7.116;2022-11-15T07:12:17;8.33;;;3.00;;
5333;SDS011;2689;50.954;7.116;2022-11-15T07:14:45;3.30;;;2.80;;
5333;SDS011;2689;50.954;7.116;2022-11-15T07:17:12;3.37;;;2.50;;
5333;SDS011;2689;50.954;7.116;2022-11-15T07:19:38;3.40;;;2.70;;
5333;SDS011;2689;50.954;7.116;2022-11-15T07:22:05;4.03;;;2.57;;
5333;SDS011;2689;50.954;7.116;2022-11-15T07:24:32;5.27;;;2.67;;
5333;SDS011;2689;50.954;7.116;2022-11-15T07:26:59;4.87;;;3.50;;
5333;SDS011;2689;50.954;7.116;2022-11-15T07:29:26;3.87;;;2.63;;
5333;SDS011;2689;50.954;7.116;2022-11-15T07:31:54;6.00;;;2.77;;
5333;SDS011;2689;50.954;7.116;2022-11-15T07:34:21;2.83;;;2.33;;
5333;SDS011;2689;50.954;7.116;2022-11-15T07:36:48;4.20;;;2.43;;
5333;SDS011;2689;50.954;7.116;2022-11-15T07:39:15;3.13;;;2.10;;
5333;SDS011;2689;50.954;7.116;2022-11-15T07:41:43;4.07;;;2.43;;
5333;SDS011;2689;50.954;7.116;2022-11-15T07:44:11;2.60;;;2.20;;
5333;SDS011;2689;50.954;7.116;2022-11-15T07:46:38;4.93;;;2.57;;
5333;SDS011;2689;50.954;7.116;2022-11-15T07:49:06;2.67;;;2.10;;
5333;SDS011;2689;50.954;7.116;2022-11-15T07:51:33;4.13;;;2.60;;
5333;SDS011;2689;50.954;7.116;2022-11-15T07:54:00;3.87;;;2.30;;
5333;SDS011;2689;50.954;7.116;2022-11-15T07:56:27;3.00;;;2.33;;
5333;SDS011;2689;50.954;7.116;2022-11-15T07:58:54;4.40;;;2.07;;
5333;SDS011;2689;50.954;7.116;2022-11-15T08:01:22;2.30;;;2.03;;
5333;SDS011;2689;50.954;7.116;2022-11-15T08:14:06;3.60;;;1.93;;
5333;SDS011;2689;50.954;7.116;2022-11-15T08:16:33;2.70;;;1.90;;
5333;SDS011;2689;50.954;7.116;2022-11-15T08:18:59;3.13;;;1.90;;
5333;SDS011;2689;50.954;7.116;2022-11-15T08:21:26;3.10;;;1.90;;
5333;SDS011;2689;50.954;7.116;2022-11-15T08:23:57;2.97;;;1.90;;
5333;SDS011;2689;50.954;7.116;2022-11-15T08:26:24;3.53;;;2.20;;
5333;SDS011;2689;50.954;7.116;2022-11-15T08:28:54;2.83;;;1.90;;
5333;SDS011;2689;50.954;7.116;2022-11-15T08:31:23;2.50;;;1.37;;
5333;SDS011;2689;50.954;7.116;2022-11-15T08:33:50;3.30;;;1.90;;
5333;SDS011;2689;50.954;7.116;2022-11-15T08:36:16;2.10;;;1.77;;
5333;SDS011;2689;50.954;7.116;2022-11-15T08:38:43;3.13;;;1.80;;
5333;SDS011;2689;50.954;7.116;2022-11-15T08:41:11;4.60;;;1.90;;
5333;SDS011;2689;50.954;7.116;2022-11-15T08:43:40;5.80;;;1.60;;
5333;SDS011;2689;50.954;7.116;2022-11-15T08:46:07;3.20;;;1.97;;
5333;SDS011;2689;50.954;7.116;2022-11-15T08:48:38;3.03;;;2.10;;
5333;SDS011;2689;50.954;7.116;2022-11-15T08:51:05;5.80;;;1.90;;
5333;SDS011;2689;50.954;7.116;2022-11-15T08:53:33;3.70;;;1.83;;
5333;SDS011;2689;50.954;7.116;2022-11-15T08:56:00;4.90;;;2.20;;
5333;SDS011;2689;50.954;7.116;2022-11-15T08:58:28;2.73;;;1.60;;
5333;SDS011;2689;50.954;7.116;2022-11-15T09:00:54;2.63;;;1.60;;
5333;SDS011;2689;50.954;7.116;2022-11-15T09:03:22;3.13;;;1.80;;
5333;SDS011;2689;50.954;7.116;2022-11-15T09:05:54;4.30;;;1.70;;
5333;SDS011;2689;50.954;7.116;2022-11-15T09:08:22;1.97;;;1.67;;
5333;SDS011;2689;50.954;7.116;2022-11-15T09:10:49;3.00;;;1.77;;
5333;SDS011;2689;50.954;7.116;2022-11-15T09:13:16;2.67;;;1.80;;
5333;SDS011;2689;50.954;7.116;2022-11-15T09:15:43;3.90;;;1.80;;
5333;SDS011;2689;50.954;7.116;2022-11-15T09:18:10;3.23;;;1.63;;
5333;SDS011;2689;50.954;7.116;2022-11-15T09:20:37;6.23;;;1.97;;
5333;SDS011;2689;50.954;7.116;2022-11-15T09:23:05;1.97;;;1.70;;
5333;SDS011;2689;50.954;7.116;2022-11-15T09:25:32;2.53;;;1.77;;
5333;SDS011;2689;50.954;7.116;2022-11-15T09:27:59;2.20;;;1.50;;
5333;SDS011;2689;50.954;7.116;2022-11-15T09:30:26;3.80;;;1.50;;
5333;SDS011;2689;50.954;7.116;2022-11-15T09:32:53;3.13;;;1.67;;
5333;SDS011;2689;50.954;7.116;2022-11-15T09:35:20;1.90;;;1.43;;
5333;SDS011;2689;50.954;7.116;2022-11-15T09:37:47;2.73;;;1.60;;
5333;SDS011;2689;50.954;7.116;2022-11-15T09:40:16;3.07;;;1.60;;
5333;SDS011;2689;50.954;7.116;2022-11-15T09:43:03;4.70;;;2.00;;
5333;SDS011;2689;50.954;7.116;2022-11-15T09:45:40;3.07;;;1.80;;
5333;SDS011;2689;50.954;7.116;2022-11-15T09:48:24;2.33;;;1.43;;
5333;SDS011;2689;50.954;7.116;2022-11-15T09:51:04;1.97;;;1.30;;
5333;SDS011;2689;50.954;7.116;2022-11-15T09:53:41;3.20;;;1.50;;
5333;SDS011;2689;50.954;7.116;2022-11-15T09:56:16;2.63;;;1.27;;
5333;SDS011;2689;50.954;7.116;2022-11-15T09:58:47;2.70;;;1.37;;
5333;SDS011;2689;50.954;7.116;2022-11-15T10:01:27;3.70;;;1.40;;
5333;SDS011;2689;50.954;7.116;2022-11-15T10:04:02;4.03;;;1.50;;
5333;SDS011;2689;50.954;7.116;2022-11-15T10:06:29;2.67;;;1.80;;
5333;SDS011;2689;50.954;7.116;2022-11-15T10:09:00;2.13;;;1.30;;
5333;SDS011;2689;50.954;7.116;2022-11-15T10:11:34;5.47;;;1.30;;
5333;SDS011;2689;50.954;7.116;2022-11-15T10:14:02;3.23;;;1.50;;
5333;SDS011;2689;50.954;7.116;2022-11-15T10:16:51;2.90;;;1.33;;
5333;SDS011;2689;50.954;7.116;2022-11-15T10:19:53;2.57;;;1.50;;
5333;SDS011;2689;50.954;7.116;2022-11-15T10:22:28;4.13;;;1.97;;
5333;SDS011;2689;50.954;7.116;2022-11-15T10:25:16;3.60;;;1.30;;
5333;SDS011;2689;50.954;7.116;2022-11-15T10:27:54;3.73;;;1.40;;
5333;SDS011;2689;50.954;7.116;2022-11-15T10:30:23;2.17;;;1.20;;
5333;SDS011;2689;50.954;7.116;2022-11-15T10:32:56;2.00;;;1.20;;
5333;SDS011;2689;50.954;7.116;2022-11-15T10:35:26;1.87;;;1.13;;
5333;SDS011;2689;50.954;7.116;2022-11-15T10:38:04;2.57;;;1.30;;
5333;SDS011;2689;50.954;7.116;2022-11-15T10:40:32;2.90;;;1.20;;
5333;SDS011;2689;50.954;7.116;2022-11-15T10:43:13;3.20;;;1.43;;
5333;SDS011;2689;50.954;7.116;2022-11-15T10:45:42;3.90;;;1.23;;
5333;SDS011;2689;50.954;7.116;2022-11-15T10:50:51;3.67;;;1.27;;
5333;SDS011;2689;50.954;7.116;2022-11-15T10:53:21;2.50;;;1.30;;
5333;SDS011;2689;50.954;7.116;2022-11-15T10:55:56;5.50;;;1.20;;
5333;SDS011;2689;50.954;7.116;2022-11-15T10:58:32;5.43;;;1.10;;
5333;SDS011;2689;50.954;7.116;2022-11-15T11:01:08;1.97;;;0.97;;
5333;SDS011;2689;50.954;7.116;2022-11-15T11:03:38;2.47;;;1.10;;
5333;SDS011;2689;50.954;7.116;2022-11-15T11:06:08;2.37;;;1.00;;
5333;SDS011;2689;50.954;7.116;2022-11-15T11:08:36;3.60;;;1.20;;
5333;SDS011;2689;50.954;7.116;2022-11-15T11:11:03;4.20;;;0.90;;
5333;SDS011;2689;50.954;7.116;2022-11-15T11:13:34;3.20;;;1.10;;
5333;SDS011;2689;50.954;7.116;2022-11-15T11:16:17;1.60;;;1.10;;
5333;SDS011;2689;50.954;7.116;2022-11-15T11:19:08;1.97;;;0.90;;
5333;SDS011;2689;50.954;7.116;2022-11-15T11:21:46;2.90;;;1.00;;
5333;SDS011;2689;50.954;7.116;2022-11-15T11:24:22;1.53;;;1.07;;
5333;SDS011;2689;50.954;7.116;2022-11-15T11:27:01;2.30;;;1.20;;
5333;SDS011;2689;50.954;7.116;2022-11-15T11:29:49;4.47;;;1.50;;
5333;SDS011;2689;50.954;7.116;2022-11-15T11:32:30;3.00;;;1.17;;
5333;SDS011;2689;50.954;7.116;2022-11-15T11:35:08;7.77;;;1.40;;
5333;SDS011;2689;50.954;7.116;2022-11-15T11:37:43;2.27;;;1.20;;
5333;SDS011;2689;50.954;7.116;2022-11-15T11:40:28;7.40;;;1.70;;
5333;SDS011;2689;50.954;7.116;2022-11-15T11:42:59;2.43;;;1.00;;
5333;SDS011;2689;50.954;7.116;2022-11-15T11:45:47;3.53;;;1.03;;
5333;SDS011;2689;50.954;7.116;2022-11-15T11:48:39;4.10;;;1.00;;
5333;SDS011;2689;50.954;7.116;2022-11-15T11:51:10;2.00;;;0.90;;
5333;SDS011;2689;50.954;7.116;2022-11-15T11:53:45;2.53;;;1.13;;
5333;SDS011;2689;50.954;7.116;2022-11-15T11:56:21;2.07;;;1.00;;
5333;SDS011;2689;50.954;7.116;2022-11-15T11:58:52;6.90;;;3.73;;
5333;SDS011;2689;50.954;7.116;2022-11-15T12:01:23;1.93;;;1.27;;
5333;SDS011;2689;50.954;7.116;2022-11-15T12:03:54;2.90;;;1.13;;
5333;SDS011;2689;50.954;7.116;2022-11-15T12:06:27;1.70;;;1.10;;
5333;SDS011;2689;50.954;7.116;2022-11-15T12:09:00;3.93;;;1.00;;
5333;SDS011;2689;50.954;7.116;2022-11-15T12:11:34;4.13;;;2.70;;
5333;SDS011;2689;50.954;7.116;2022-11-15T12:14:11;2.57;;;1.10;;
5333;SDS011;2689;50.954;7.116;2022-11-15T12:16:46;2.60;;;1.10;;
5333;SDS011;2689;50.954;7.116;2022-11-15T12:19:13;5.10;;;1.37;;
5333;SDS011;2689;50.954;7.116;2022-11-15T12:21:42;3.57;;;1.30;;
5333;SDS011;2689;50.954;7.116;2022-11-15T12:24:13;2.80;;;1.03;;
5333;SDS011;2689;50.954;7.116;2022-11-15T12:26:46;3.97;;;1.20;;
5333;SDS011;2689;50.954;7.116;2022-11-15T12:29:19;4.37;;;1.10;;
5333;SDS011;2689;50.954;7.116;2022-11-15T12:31:52;1.90;;;0.73;;
5333;SDS011;2689;50.954;7.116;2022-11-15T12:34:43;1.77;;;1.20;;
5333;SDS011;2689;50.954;7.116;2022-11-15T12:40:15;2.90;;;1.43;;
5333;SDS011;2689;50.954;7.116;2022-11-15T12:42:58;4.97;;;1.00;;
5333;SDS011;2689;50.954;7.116;2022-11-15T12:45:57;1.60;;;1.10;;
5333;SDS011;2689;50.954;7.116;2022-11-15T12:48:48;2.67;;;1.13;;
5333;SDS011;2689;50.954;7.116;2022-11-15T12:54:51;3.63;;;1.40;;
5333;SDS011;2689;50.954;7.116;2022-11-15T12:57:34;3.33;;;1.50;;
5333;SDS011;2689;50.954;7.116;2022-11-15T13:03:19;2.73;;;1.10;;
5333;SDS011;2689;50.954;7.116;2022-11-15T13:05:56;2.70;;;1.30;;
5333;SDS011;2689;50.954;7.116;2022-11-15T13:08:57;2.20;;;1.30;;
5333;SDS011;2689;50.954;7.116;2022-11-15T13:20:19;5.50;;;2.03;;
5333;SDS011;2689;50.954;7.116;2022-11-15T13:22:50;7.20;;;4.83;;
5333;SDS011;2689;50.954;7.116;2022-11-15T13:28:20;3.83;;;2.27;;
5333;SDS011;2689;50.954;7.116;2022-11-15T13:30:53;3.00;;;1.80;;
5333;SDS011;2689;50.954;7.116;2022-11-15T13:33:30;3.43;;;2.03;;
5333;SDS011;2689;50.954;7.116;2022-11-15T13:35:59;5.07;;;2.10;;
5333;SDS011;2689;50.954;7.116;2022-11-15T13:38:38;3.27;;;1.90;;
5333;SDS011;2689;50.954;7.116;2022-11-15T13:41:22;3.33;;;1.70;;
5333;SDS011;2689;50.954;7.116;2022-11-15T13:43:51;2.50;;;2.03;;
5333;SDS011;2689;50.954;7.116;2022-11-15T13:46:20;2.47;;;1.70;;
5333;SDS011;2689;50.954;7.116;2022-11-15T13:52:21;3.47;;;1.97;;
5333;SDS011;2689;50.954;7.116;2022-11-15T14:05:26;3.73;;;2.00;;
5333;SDS011;2689;50.954;7.116;2022-11-15T14:07:53;4.50;;;2.30;;
5333;SDS011;2689;50.954;7.116;2022-11-15T14:10:30;4.63;;;2.20;;
5333;SDS011;2689;50.954;7.116;2022-11-15T14:12:58;2.60;;;1.70;;
5333;SDS011;2689;50.954;7.116;2022-11-15T14:15:27;2.23;;;1.90;;
5333;SDS011;2689;50.954;7.116;2022-11-15T14:17:57;2.93;;;2.10;;
5333;SDS011;2689;50.954;7.116;2022-11-15T14:20:27;5.83;;;1.87;;
5333;SDS011;2689;50.954;7.116;2022-11-15T14:22:58;3.93;;;2.10;;
5333;SDS011;2689;50.954;7.116;2022-11-15T14:25:33;3.07;;;2.00;;
5333;SDS011;2689;50.954;7.116;2022-11-15T14:28:08;4.27;;;1.97;;
5333;SDS011;2689;50.954;7.116;2022-11-15T14:30:41;3.10;;;2.23;;
5333;SDS011;2689;50.954;7.116;2022-11-15T14:33:17;3.63;;;1.93;;
5333;SDS011;2689;50.954;7.116;2022-11-15T14:35:51;5.67;;;2.50;;
5333;SDS011;2689;50.954;7.116;2022-11-15T14:38:19;4.50;;;2.17;;
5333;SDS011;2689;50.954;7.116;2022-11-15T14:40:46;3.97;;;1.97;;
5333;SDS011;2689;50.954;7.116;2022-11-15T14:43:13;3.53;;;1.80;;
5333;SDS011;2689;50.954;7.116;2022-11-15T14:45:41;2.27;;;1.50;;
5333;SDS011;2689;50.954;7.116;2022-11-15T14:48:08;2.20;;;1.77;;
5333;SDS011;2689;50.954;7.116;2022-11-15T14:50:35;3.00;;;1.83;;
5333;SDS011;2689;50.954;7.116;2022-11-15T14:53:05;2.97;;;1.87;;
5333;SDS011;2689;50.954;7.116;2022-11-15T14:55:33;2.67;;;1.90;;
5333;SDS011;2689;50.954;7.116;2022-11-15T14:58:01;3.27;;;2.30;;
5333;SDS011;2689;50.954;7.116;2022-11-15T15:00:29;8.30;;;2.30;;
5333;SDS011;2689;50.954;7.116;2022-11-15T15:02:56;3.37;;;2.17;;
5333;SDS011;2689;50.954;7.116;2022-11-15T15:05:25;4.43;;;2.17;;
5333;SDS011;2689;50.954;7.116;2022-11-15T15:07:56;9.27;;;7.07;;
5333;SDS011;2689;50.954;7.116;2022-11-15T15:10:24;1.90;;;1.43;;
5333;SDS011;2689;50.954;7.116;2022-11-15T15:12:53;5.30;;;1.53;;
5333;SDS011;2689;50.954;7.116;2022-11-15T15:15:21;2.93;;;1.80;;
5333;SDS011;2689;50.954;7.116;2022-11-15T15:17:52;3.90;;;1.97;;
5333;SDS011;2689;50.954;7.116;2022-11-15T15:20:18;3.13;;;2.20;;
5333;SDS011;2689;50.954;7.116;2022-11-15T15:22:45;3.57;;;2.23;;
5333;SDS011;2689;50.954;7.116;2022-11-15T15:25:19;3.60;;;1.63;;
5333;SDS011;2689;50.954;7.116;2022-11-15T15:27:49;3.50;;;2.30;;
5333;SDS011;2689;50.954;7.116;2022-11-15T15:30:16;4.87;;;2.10;;
5333;SDS011;2689;50.954;7.116;2022-11-15T15:32:44;3.20;;;1.60;;
5333;SDS011;2689;50.954;7.116;2022-11-15T15:35:11;2.10;;;1.23;;
5333;SDS011;2689;50.954;7.116;2022-11-15T15:37:39;4.60;;;1.90;;
5333;SDS011;2689;50.954;7.116;2022-11-15T15:40:11;3.20;;;2.03;;
5333;SDS011;2689;50.954;7.116;2022-11-15T15:42:41;9.20;;;7.30;;
5333;SDS011;2689;50.954;7.116;2022-11-15T15:45:10;3.80;;;2.77;;
5333;SDS011;2689;50.954;7.116;2022-11-15T15:47:48;2.07;;;1.70;;
5333;SDS011;2689;50.954;7.116;2022-11-15T15:50:20;3.20;;;2.60;;
5333;SDS011;2689;50.954;7.116;2022-11-15T15:52:49;4.07;;;2.30;;
5333;SDS011;2689;50.954;7.116;2022-11-15T15:55:17;5.33;;;3.33;;
5333;SDS011;2689;50.954;7.116;2022-11-15T15:57:45;3.37;;;2.27;;
5333;SDS011;2689;50.954;7.116;2022-11-15T16:00:14;4.03;;;1.80;;
5333;SDS011;2689;50.954;7.116;2022-11-15T16:02:42;4.20;;;1.70;;
5333;SDS011;2689;50.954;7.116;2022-11-15T16:05:09;6.07;;;3.70;;
5333;SDS011;2689;50.954;7.116;2022-11-15T16:07:37;7.30;;;4.50;;
5333;SDS011;2689;50.954;7.116;2022-11-15T16:10:18;3.17;;;1.60;;
5333;SDS011;2689;50.954;7.116;2022-11-15T16:12:48;3.60;;;1.80;;
5333;SDS011;2689;50.954;7.116;2022-11-15T16:15:16;9.63;;;3.27;;
5333;SDS011;2689;50.954;7.116;2022-11-15T16:17:45;4.67;;;1.80;;
5333;SDS011;2689;50.954;7.116;2022-11-15T16:20:22;2.17;;;1.70;;
5333;SDS011;2689;50.954;7.116;2022-11-15T16:22:58;6.43;;;3.80;;
5333;SDS011;2689;50.954;7.116;2022-11-15T16:25:25;4.00;;;2.20;;
5333;SDS011;2689;50.954;7.116;2022-11-15T16:27:52;2.70;;;1.60;;
5333;SDS011;2689;50.954;7.116;2022-11-15T16:30:21;3.30;;;1.70;;
5333;SDS011;2689;50.954;7.116;2022-11-15T16:32:49;2.23;;;1.40;;
5333;SDS011;2689;50.954;7.116;2022-11-15T16:35:16;1.93;;;1.63;;
5333;SDS011;2689;50.954;7.116;2022-11-15T16:37:43;2.20;;;1.57;;